createdAt,value
2022-12-04T00:01:21.440Z,85.76
2022-12-04T00:03:48.617Z,85.69
2022-12-04T00:06:18.805Z,85.86
2022-12-04T00:08:47.850Z,85.99
2022-12-04T00:11:22.175Z,86.13
2022-12-04T00:13:49.594Z,85.95
2022-12-04T00:16:20.979Z,85.93
2022-12-04T00:18:48.129Z,86.20
2022-12-04T00:21:17.732Z,85.75
2022-12-04T00:23:45.385Z,85.92
2022-12-04T00:26:15.811Z,86.33
2022-12-04T00:28:43.992Z,85.87
2022-12-04T00:31:13.957Z,86.10
2022-12-04T00:33:41.263Z,85.71
2022-12-04T00:36:11.689Z,85.71
2022-12-04T00:38:39.762Z,86.25
2022-12-04T00:41:11.456Z,86.00
2022-12-04T00:43:38.669Z,86.04
2022-12-04T00:46:06.363Z,86.15
2022-12-04T00:48:33.461Z,86.44
2022-12-04T00:51:16.134Z,85.98
2022-12-04T00:53:43.378Z,86.14
2022-12-04T00:56:13.772Z,86.65
2022-12-04T00:58:40.747Z,85.92
2022-12-04T01:01:17.853Z,85.95
2022-12-04T01:03:45.758Z,86.10
2022-12-04T01:06:27.090Z,86.40
2022-12-04T01:08:55.156Z,85.95
2022-12-04T01:11:23.742Z,86.17
2022-12-04T01:13:51.335Z,86.34
2022-12-04T01:16:33.750Z,86.27
2022-12-04T01:19:01.442Z,86.62
2022-12-04T01:21:28.848Z,86.46
2022-12-04T01:23:55.927Z,86.27
2022-12-04T01:26:23.492Z,86.36
2022-12-04T01:28:50.696Z,86.86
2022-12-04T01:31:19.882Z,86.62
2022-12-04T01:33:47.993Z,86.71
2022-12-04T01:36:17.660Z,86.58
2022-12-04T01:38:45.373Z,86.56
2022-12-04T01:41:14.762Z,86.77
2022-12-04T01:43:42.727Z,86.64
2022-12-04T01:46:10.595Z,86.52
2022-12-04T01:48:46.873Z,86.08
2022-12-04T01:51:40.117Z,86.32
2022-12-04T01:54:12.200Z,86.51
2022-12-04T01:56:47.246Z,86.65
2022-12-04T01:59:17.615Z,86.42
2022-12-04T02:01:54.285Z,86.55
2022-12-04T02:04:21.677Z,86.35
2022-12-04T02:06:48.819Z,87.01
2022-12-04T02:09:19.325Z,87.10
2022-12-04T02:12:18.972Z,86.84
2022-12-04T02:15:12.195Z,86.61
2022-12-04T02:18:27.268Z,86.55
2022-12-04T02:21:03.215Z,86.83
2022-12-04T02:23:36.175Z,86.86
2022-12-04T02:26:38.294Z,87.20
2022-12-04T02:29:38.159Z,87.09
2022-12-04T02:32:12.771Z,86.74
2022-12-04T02:34:44.002Z,87.20
2022-12-04T02:37:30.562Z,86.91
2022-12-04T02:40:10.426Z,86.98
2022-12-04T02:42:45.957Z,86.86
2022-12-04T02:45:19.912Z,86.82
2022-12-04T02:47:47.522Z,87.15
2022-12-04T02:50:19.879Z,86.95
2022-12-04T02:52:56.041Z,86.42
2022-12-04T02:55:46.231Z,86.67
2022-12-04T02:58:23.084Z,86.95
2022-12-04T03:00:52.101Z,86.31
2022-12-04T03:03:25.444Z,86.53
2022-12-04T03:05:52.169Z,86.66
2022-12-04T03:08:24.517Z,87.26
2022-12-04T03:10:55.802Z,87.41
2022-12-04T03:13:47.868Z,86.86
2022-12-04T03:16:28.389Z,87.10
2022-12-04T03:19:01.938Z,86.69
2022-12-04T03:21:33.479Z,87.46
2022-12-04T03:24:12.597Z,87.02
2022-12-04T03:26:47.166Z,86.86
2022-12-04T03:29:21.411Z,86.97
2022-12-04T03:31:55.904Z,87.48
2022-12-04T03:34:35.565Z,87.13
2022-12-04T03:37:12.377Z,87.66
2022-12-04T03:40:03.675Z,87.43
2022-12-04T03:42:50.333Z,87.03
2022-12-04T03:45:23.233Z,87.21
2022-12-04T03:48:22.633Z,87.33
2022-12-04T03:51:02.646Z,86.85
2022-12-04T03:53:40.151Z,87.53
2022-12-04T03:56:14.206Z,87.33
2022-12-04T03:58:48.178Z,87.78
2022-12-04T04:01:20.555Z,87.63
2022-12-04T04:03:51.768Z,87.40
2022-12-04T04:06:38.131Z,87.56
2022-12-04T04:09:13.279Z,87.48
2022-12-04T04:12:11.438Z,87.47
2022-12-04T04:15:21.908Z,87.17
2022-12-04T04:18:08.877Z,87.19
2022-12-04T04:21:03.744Z,87.30
2022-12-04T04:23:56.573Z,87.74
2022-12-04T04:26:27.119Z,87.43
2022-12-04T04:28:54.039Z,87.68
2022-12-04T04:31:43.542Z,88.14
2022-12-04T04:34:21.875Z,87.92
2022-12-04T04:36:59.344Z,87.69
2022-12-04T04:39:49.248Z,87.39
2022-12-04T04:42:33.264Z,87.51
2022-12-04T04:45:25.019Z,87.87
2022-12-04T04:48:02.643Z,87.69
2022-12-04T04:50:30.284Z,87.67
2022-12-04T04:53:04.430Z,87.53
2022-12-04T04:55:34.734Z,87.88
2022-12-04T04:58:14.096Z,87.85
2022-12-04T05:00:45.149Z,88.30
2022-12-04T05:03:12.081Z,87.71
2022-12-04T05:05:39.042Z,88.43
2022-12-04T05:08:06.593Z,88.07
2022-12-04T05:10:33.496Z,87.97
2022-12-04T05:13:00.359Z,88.09
2022-12-04T05:15:27.276Z,87.80
2022-12-04T05:17:54.182Z,87.77
2022-12-04T05:20:21.018Z,87.94
2022-12-04T05:22:47.937Z,88.12
2022-12-04T05:25:14.832Z,88.07
2022-12-04T05:27:41.727Z,88.01
2022-12-04T05:30:10.468Z,88.05
2022-12-04T05:32:37.359Z,88.18
2022-12-04T05:35:10.617Z,87.93
2022-12-04T05:37:39.351Z,87.97
2022-12-04T05:40:07.637Z,88.12
2022-12-04T05:42:35.022Z,88.14
2022-12-04T05:45:02.108Z,87.73
2022-12-04T05:47:28.919Z,87.65
2022-12-04T05:49:56.007Z,88.06
2022-12-04T05:52:23.002Z,87.74
2022-12-04T05:54:49.883Z,87.76
2022-12-04T05:57:16.695Z,87.74
2022-12-04T05:59:43.497Z,88.07
2022-12-04T06:02:10.314Z,88.33
2022-12-04T06:04:38.631Z,87.76
2022-12-04T06:07:05.541Z,87.71
2022-12-04T06:09:32.391Z,87.78
2022-12-04T06:11:59.479Z,88.03
2022-12-04T06:14:26.530Z,87.94
2022-12-04T06:16:53.526Z,88.19
2022-12-04T06:19:22.484Z,88.17
2022-12-04T06:21:51.887Z,87.93
2022-12-04T06:24:23.109Z,88.16
2022-12-04T06:27:25.541Z,87.85
2022-12-04T06:29:37.387Z,88.27
2022-12-04T06:32:04.620Z,88.07
2022-12-04T06:34:32.621Z,88.17
2022-12-04T06:36:59.529Z,88.05
2022-12-04T06:39:26.406Z,88.33
2022-12-04T06:41:53.224Z,88.16
2022-12-04T06:44:20.040Z,88.12
2022-12-04T06:46:48.027Z,87.84
2022-12-04T06:49:16.064Z,88.20
2022-12-04T06:51:42.830Z,88.25
2022-12-04T06:54:10.979Z,88.22
2022-12-04T06:56:37.923Z,88.30
2022-12-04T06:59:05.821Z,88.18
2022-12-04T07:01:34.649Z,87.80
2022-12-04T07:04:04.094Z,87.90
2022-12-04T07:06:36.392Z,88.13
2022-12-04T07:09:10.007Z,88.19
2022-12-04T07:11:37.487Z,88.14
2022-12-04T07:14:04.763Z,87.81
2022-12-04T07:16:38.361Z,87.76
2022-12-04T07:19:08.290Z,88.21
2022-12-04T07:21:36.434Z,88.06
2022-12-04T07:24:03.517Z,88.30
2022-12-04T07:26:31.186Z,88.43
2022-12-04T07:28:59.069Z,88.10
2022-12-04T07:31:27.867Z,88.40
2022-12-04T07:33:55.358Z,88.74
2022-12-04T07:36:23.697Z,88.37
2022-12-04T07:38:51.492Z,88.23
2022-12-04T07:41:20.741Z,88.13
2022-12-04T07:43:47.921Z,88.45
2022-12-04T07:46:18.385Z,88.24
2022-12-04T07:48:45.498Z,88.13
2022-12-04T07:51:14.884Z,88.43
2022-12-04T07:53:42.554Z,88.10
2022-12-04T07:56:11.106Z,88.18
2022-12-04T07:58:38.505Z,88.80
2022-12-04T08:01:11.174Z,88.50
2022-12-04T08:03:45.200Z,88.57
2022-12-04T08:06:15.009Z,88.34
2022-12-04T08:08:42.088Z,88.72
2022-12-04T08:11:15.065Z,88.52
2022-12-04T08:13:42.325Z,88.44
2022-12-04T08:16:11.673Z,87.89
2022-12-04T08:18:38.606Z,88.47
2022-12-04T08:21:12.793Z,88.72
2022-12-04T08:23:41.161Z,88.38
2022-12-04T08:26:08.904Z,88.51
2022-12-04T08:28:36.222Z,88.33
2022-12-04T08:31:18.231Z,88.31
2022-12-04T08:33:46.366Z,88.05
2022-12-04T08:36:16.119Z,88.15
2022-12-04T08:38:43.277Z,88.43
2022-12-04T08:41:13.094Z,88.25
2022-12-04T08:43:40.295Z,88.51
2022-12-04T08:46:10.581Z,88.28
2022-12-04T08:48:38.419Z,88.51
2022-12-04T08:51:08.301Z,88.43
2022-12-04T08:53:38.847Z,88.40
2022-12-04T08:56:05.996Z,87.97
2022-12-04T08:58:33.026Z,88.46
2022-12-04T09:01:08.363Z,88.04
2022-12-04T09:03:35.789Z,88.47
2022-12-04T09:06:04.844Z,88.21
2022-12-04T09:08:32.740Z,88.29
2022-12-04T09:11:07.827Z,88.46
2022-12-04T09:13:35.813Z,89.02
2022-12-04T09:16:08.709Z,88.49
2022-12-04T09:18:36.974Z,89.03
2022-12-04T09:21:06.980Z,89.07
2022-12-04T09:23:35.757Z,88.99
2022-12-04T09:26:03.734Z,88.87
2022-12-04T09:28:31.230Z,89.27
2022-12-04T09:31:03.923Z,89.08
2022-12-04T09:33:31.272Z,89.71
2022-12-04T09:36:03.031Z,89.80
2022-12-04T09:38:30.896Z,89.62
2022-12-04T09:41:22.650Z,90.00
2022-12-04T09:43:58.842Z,89.57
2022-12-04T09:46:39.457Z,89.67
2022-12-04T09:49:22.065Z,89.77
2022-12-04T09:51:50.802Z,89.72
2022-12-04T09:54:23.756Z,89.75
2022-12-04T09:57:03.814Z,89.63
2022-12-04T09:59:35.019Z,89.81
2022-12-04T10:02:19.687Z,89.60
2022-12-04T10:04:46.631Z,89.86
2022-12-04T10:07:18.933Z,89.90
2022-12-04T10:09:54.421Z,89.64
2022-12-04T10:12:37.808Z,90.13
2022-12-04T10:15:16.895Z,89.65
2022-12-04T10:18:14.576Z,89.75
2022-12-04T10:20:53.273Z,89.64
2022-12-04T10:23:53.105Z,89.49
2022-12-04T10:26:24.584Z,88.78
2022-12-04T10:28:57.813Z,89.17
2022-12-04T10:31:26.342Z,88.60
2022-12-04T10:33:53.320Z,88.48
2022-12-04T10:36:24.935Z,88.30
2022-12-04T10:38:57.170Z,88.81
2022-12-04T10:41:51.833Z,88.39
2022-12-04T10:44:20.715Z,87.85
2022-12-04T10:46:48.369Z,88.16
2022-12-04T10:49:29.060Z,87.99
2022-12-04T10:51:56.504Z,87.71
2022-12-04T10:54:32.849Z,87.68
2022-12-04T10:57:06.029Z,87.44
2022-12-04T10:59:34.613Z,87.80
2022-12-04T11:02:28.537Z,87.47
2022-12-04T11:05:01.926Z,87.86
2022-12-04T11:07:32.427Z,87.57
2022-12-04T11:10:21.522Z,87.48
2022-12-04T11:13:06.180Z,87.75
2022-12-04T11:15:42.897Z,87.46
2022-12-04T11:18:17.979Z,87.79
2022-12-04T11:21:07.916Z,87.46
2022-12-04T11:23:42.857Z,87.24
2022-12-04T11:26:11.031Z,87.44
2022-12-04T11:28:42.330Z,87.08
2022-12-04T11:31:16.694Z,87.25
2022-12-04T11:33:48.382Z,87.56
2022-12-04T11:36:24.009Z,87.30
2022-12-04T11:39:04.824Z,87.36
2022-12-04T11:41:33.187Z,87.23
2022-12-04T11:44:01.078Z,87.34
2022-12-04T11:46:36.038Z,87.65
2022-12-04T11:49:04.452Z,87.12
2022-12-04T11:52:02.453Z,86.92
2022-12-04T11:54:48.534Z,86.84
2022-12-04T11:57:37.934Z,86.88
2022-12-04T12:00:19.039Z,86.98
2022-12-04T12:03:10.434Z,86.36
2022-12-04T12:06:08.475Z,86.82
2022-12-04T12:09:09.308Z,86.98
2022-12-04T12:11:42.311Z,86.50
2022-12-04T12:14:17.557Z,86.59
2022-12-04T12:16:59.403Z,86.50
2022-12-04T12:19:57.181Z,87.04
2022-12-04T12:22:42.812Z,86.64
2022-12-04T12:25:27.010Z,86.56
2022-12-04T12:28:18.132Z,86.25
2022-12-04T12:31:10.127Z,86.58
2022-12-04T12:34:01.434Z,86.24
2022-12-04T12:36:38.793Z,86.43
2022-12-04T12:39:16.673Z,86.06
2022-12-04T12:41:49.481Z,86.63
2022-12-04T12:44:58.165Z,86.18
2022-12-04T12:47:31.159Z,86.28
2022-12-04T12:50:36.613Z,86.37
2022-12-04T12:53:13.598Z,86.59
2022-12-04T12:55:46.123Z,86.32
2022-12-04T12:58:57.459Z,86.52
2022-12-04T13:01:45.938Z,86.28
2022-12-04T13:04:37.540Z,86.83
2022-12-04T13:07:27.629Z,86.32
2022-12-04T13:10:17.301Z,86.56
2022-12-04T13:12:49.874Z,86.28
2022-12-04T13:15:20.598Z,86.32
2022-12-04T13:17:49.905Z,86.10
2022-12-04T13:20:28.958Z,86.69
2022-12-04T13:23:23.588Z,86.73
2022-12-04T13:26:10.473Z,86.57
2022-12-04T13:28:40.281Z,86.53
2022-12-04T13:31:19.306Z,86.33
2022-12-04T13:34:07.716Z,86.34
2022-12-04T13:36:52.760Z,86.60
2022-12-04T13:39:31.826Z,86.65
2022-12-04T13:42:02.636Z,86.73
2022-12-04T13:44:31.880Z,86.40
2022-12-04T13:47:10.170Z,86.38
2022-12-04T13:49:42.464Z,86.94
2022-12-04T13:52:40.977Z,86.40
2022-12-04T13:55:28.241Z,86.46
2022-12-04T13:58:01.236Z,86.33
2022-12-04T14:00:35.291Z,86.59
2022-12-04T14:03:21.611Z,86.38
2022-12-04T14:05:48.884Z,86.53
2022-12-04T14:08:25.507Z,86.76
2022-12-04T14:11:15.239Z,86.67
2022-12-04T14:13:52.517Z,86.94
2022-12-04T14:16:41.192Z,87.11
2022-12-04T14:19:09.136Z,86.74
2022-12-04T14:21:44.626Z,86.80
2022-12-04T14:24:25.609Z,87.33
2022-12-04T14:27:11.327Z,86.94
2022-12-04T14:29:49.700Z,86.97
2022-12-04T14:32:24.638Z,87.46
2022-12-04T14:34:52.051Z,87.34
2022-12-04T14:37:44.660Z,87.14
2022-12-04T14:40:27.215Z,87.23
2022-12-04T14:42:55.065Z,87.23
2022-12-04T14:45:43.902Z,87.18
2022-12-04T14:48:29.045Z,87.32
2022-12-04T14:51:12.807Z,87.60
2022-12-04T14:54:11.894Z,87.54
2022-12-04T14:56:50.774Z,87.30
2022-12-04T14:59:21.359Z,87.40
2022-12-04T15:01:52.123Z,87.93
2022-12-04T15:04:33.178Z,88.00
2022-12-04T15:07:01.036Z,87.68
2022-12-04T15:09:47.332Z,87.65
2022-12-04T15:12:37.656Z,87.53
2022-12-04T15:15:26.672Z,87.90
2022-12-04T15:18:15.181Z,87.59
2022-12-04T15:20:56.732Z,87.87
2022-12-04T15:23:37.474Z,88.20
2022-12-04T15:26:15.744Z,88.12
2022-12-04T15:28:45.514Z,88.33
2022-12-04T15:31:29.816Z,88.15
2022-12-04T15:34:01.432Z,88.23
2022-12-04T15:36:28.222Z,88.35
2022-12-04T15:38:55.716Z,88.23
2022-12-04T15:41:34.480Z,88.30
2022-12-04T15:44:03.820Z,88.24
2022-12-04T15:46:34.370Z,88.15
2022-12-04T15:49:29.133Z,88.31
2022-12-04T15:52:11.319Z,88.46
2022-12-04T15:54:43.693Z,88.30
2022-12-04T15:57:37.072Z,88.09
2022-12-04T16:00:07.411Z,87.92
2022-12-04T16:02:41.814Z,88.54
2022-12-04T16:05:20.932Z,88.03
2022-12-04T16:07:53.480Z,88.30
2022-12-04T16:10:29.921Z,88.63
2022-12-04T16:13:01.017Z,88.32
2022-12-04T16:15:44.047Z,88.09
2022-12-04T16:18:14.212Z,88.40
2022-12-04T16:20:41.585Z,88.61
2022-12-04T16:23:09.994Z,88.21
2022-12-04T16:25:37.335Z,88.70
2022-12-04T16:28:04.449Z,88.28
2022-12-04T16:30:34.243Z,88.45
2022-12-04T16:33:01.498Z,88.10
2022-12-04T16:35:30.628Z,88.47
2022-12-04T16:37:57.673Z,88.63
2022-12-04T16:40:24.562Z,88.10
2022-12-04T16:42:51.424Z,88.30
2022-12-04T16:45:22.194Z,88.28
2022-12-04T16:47:49.537Z,88.45
2022-12-04T16:50:17.153Z,88.51
2022-12-04T16:52:44.176Z,88.57
2022-12-04T16:55:19.144Z,88.71
2022-12-04T16:57:46.508Z,88.46
2022-12-04T17:00:15.708Z,88.33
2022-12-04T17:02:43.336Z,88.32
2022-12-04T17:05:20.606Z,88.59
2022-12-04T17:07:53.897Z,88.56
2022-12-04T17:10:24.329Z,88.44
2022-12-04T17:13:00.441Z,88.24
2022-12-04T17:15:27.713Z,88.18
2022-12-04T17:17:54.815Z,88.63
2022-12-04T17:20:22.331Z,88.45
2022-12-04T17:22:49.758Z,88.34
2022-12-04T17:25:20.307Z,88.22
2022-12-04T17:27:48.027Z,88.51
2022-12-04T17:30:16.974Z,88.68
2022-12-04T17:32:43.922Z,88.57
2022-12-04T17:35:12.756Z,88.45
2022-12-04T17:37:39.800Z,88.74
2022-12-04T17:40:08.010Z,88.20
2022-12-04T17:42:35.182Z,88.15
2022-12-04T17:45:02.484Z,88.14
2022-12-04T17:47:34.582Z,88.14
2022-12-04T17:50:01.800Z,88.46
2022-12-04T17:52:32.795Z,88.24
2022-12-04T17:54:59.914Z,88.61
2022-12-04T17:57:27.994Z,88.19
2022-12-04T17:59:54.975Z,88.56
2022-12-04T18:02:21.911Z,88.47
2022-12-04T18:04:49.021Z,88.53
2022-12-04T18:07:16.037Z,88.38
2022-12-04T18:09:42.943Z,88.64
2022-12-04T18:12:09.946Z,88.52
2022-12-04T18:14:37.335Z,88.11
2022-12-04T18:17:04.634Z,88.35
2022-12-04T18:19:32.491Z,88.62
2022-12-04T18:22:00.016Z,88.28
2022-12-04T18:24:27.988Z,88.62
2022-12-04T18:26:54.903Z,88.69
2022-12-04T18:29:26.575Z,88.82
2022-12-04T18:34:38.481Z,89.11
2022-12-04T18:37:05.664Z,89.05
2022-12-04T18:39:32.579Z,89.36
2022-12-04T18:42:00.177Z,89.56
2022-12-04T18:44:27.216Z,89.79
2022-12-04T18:46:54.143Z,89.66
2022-12-04T18:49:21.165Z,89.89
2022-12-04T18:51:50.005Z,90.04
2022-12-04T18:54:29.073Z,89.95
2022-12-04T18:56:56.020Z,90.51
2022-12-04T18:59:25.762Z,90.74
2022-12-04T19:01:54.342Z,90.49
2022-12-04T19:04:23.517Z,91.07
2022-12-04T19:06:53.868Z,90.93
2022-12-04T19:09:40.740Z,91.27
2022-12-04T19:12:11.904Z,91.00
2022-12-04T19:14:40.186Z,91.31
2022-12-04T19:17:07.927Z,91.55
2022-12-04T19:19:35.023Z,91.98
2022-12-04T19:22:02.545Z,91.86
2022-12-04T19:24:29.574Z,91.89
2022-12-04T19:26:56.556Z,92.04
2022-12-04T19:29:23.810Z,92.22
2022-12-04T19:31:54.609Z,92.26
2022-12-04T19:34:24.569Z,92.33
2022-12-04T19:36:54.691Z,92.76
2022-12-04T19:39:21.524Z,92.56
2022-12-04T19:41:48.996Z,92.74
2022-12-04T19:44:47.409Z,92.74
2022-12-04T19:47:03.710Z,92.78
2022-12-04T19:49:30.708Z,92.52
2022-12-04T19:51:58.318Z,92.50
2022-12-04T19:54:26.327Z,93.00
2022-12-04T19:56:53.223Z,92.53
2022-12-04T19:59:20.776Z,93.08
2022-12-04T20:01:48.364Z,92.79
2022-12-04T20:04:15.844Z,92.64
2022-12-04T20:06:45.636Z,93.01
2022-12-04T20:09:20.496Z,93.02
2022-12-04T20:11:48.031Z,93.07
2022-12-04T20:14:15.464Z,93.10
2022-12-04T20:16:43.306Z,93.25
2022-12-04T20:19:15.217Z,93.11
2022-12-04T20:21:43.304Z,93.59
2022-12-04T20:24:13.971Z,93.46
2022-12-04T20:26:43.197Z,93.26
2022-12-04T20:29:13.318Z,93.18
2022-12-04T20:31:42.363Z,93.21
2022-12-04T20:34:13.518Z,93.21
2022-12-04T20:36:45.019Z,93.32
2022-12-04T20:39:13.999Z,93.40
2022-12-04T20:41:41.595Z,93.17
2022-12-04T20:44:12.482Z,93.16
2022-12-04T20:46:40.525Z,93.44
2022-12-04T20:49:10.711Z,93.14
2022-12-04T20:51:41.292Z,93.14
2022-12-04T20:54:11.418Z,93.10
2022-12-04T20:56:38.828Z,93.06
2022-12-04T20:59:12.715Z,93.03
2022-12-04T21:01:40.474Z,93.15
2022-12-04T21:04:08.007Z,93.24
2022-12-04T21:06:38.547Z,93.23
2022-12-04T21:09:14.548Z,93.09
2022-12-04T21:11:44.295Z,93.01
2022-12-04T21:14:32.566Z,93.33
2022-12-04T21:16:59.894Z,93.25
2022-12-04T21:19:27.157Z,93.07
2022-12-04T21:21:54.394Z,93.05
2022-12-04T21:24:23.646Z,93.12
2022-12-04T21:26:50.475Z,93.00
2022-12-04T21:29:17.341Z,93.49
2022-12-04T21:31:44.744Z,92.85
2022-12-04T21:34:15.943Z,93.33
2022-12-04T21:36:43.710Z,93.17
2022-12-04T21:39:11.045Z,92.85
2022-12-04T21:41:56.609Z,93.26
2022-12-04T21:44:24.062Z,92.83
2022-12-04T21:46:51.340Z,92.91
2022-12-04T21:49:19.693Z,93.23
2022-12-04T21:52:02.335Z,93.16
2022-12-04T21:54:29.820Z,93.42
2022-12-04T21:56:57.922Z,93.17
2022-12-04T21:59:26.487Z,93.20
2022-12-04T22:01:53.778Z,93.18
2022-12-04T22:04:21.745Z,93.07
2022-12-04T22:06:48.822Z,93.11
2022-12-04T22:09:15.840Z,93.06
2022-12-04T22:11:43.341Z,93.18
2022-12-04T22:14:11.122Z,92.91
2022-12-04T22:16:42.301Z,93.23
2022-12-04T22:19:13.250Z,93.33
2022-12-04T22:21:40.514Z,93.38
2022-12-04T22:24:08.436Z,93.26
2022-12-04T22:26:36.213Z,93.13
2022-12-04T22:29:20.733Z,93.11
2022-12-04T22:31:51.424Z,93.18
2022-12-04T22:34:18.532Z,93.37
2022-12-04T22:36:45.839Z,93.13
2022-12-04T22:39:12.857Z,93.18
2022-12-04T22:41:40.070Z,93.23
2022-12-04T22:44:07.941Z,93.25
2022-12-04T22:46:34.976Z,93.20
2022-12-04T22:49:02.250Z,93.37
2022-12-04T22:51:29.273Z,93.38
2022-12-04T22:53:59.765Z,93.26
2022-12-04T22:56:32.041Z,93.04
2022-12-04T22:58:59.678Z,93.05
2022-12-04T23:01:34.114Z,93.12
2022-12-04T23:04:02.927Z,92.93
2022-12-04T23:06:32.004Z,93.03
2022-12-04T23:09:14.262Z,92.90
2022-12-04T23:11:41.956Z,93.28
2022-12-04T23:14:13.078Z,93.17
2022-12-04T23:16:40.242Z,92.90
2022-12-04T23:19:08.757Z,92.94
2022-12-04T23:21:35.688Z,93.03
2022-12-04T23:24:02.785Z,92.95
2022-12-04T23:26:39.419Z,92.90
2022-12-04T23:29:23.307Z,92.93
2022-12-04T23:31:54.555Z,92.68
2022-12-04T23:34:21.443Z,92.63
2022-12-04T23:36:48.287Z,92.45
2022-12-04T23:39:15.137Z,92.57
2022-12-04T23:41:41.970Z,92.64
2022-12-04T23:44:08.868Z,92.78
2022-12-04T23:46:35.852Z,92.23
2022-12-04T23:49:03.300Z,92.45
2022-12-04T23:51:30.581Z,92.21
2022-12-04T23:53:57.485Z,92.48
2022-12-04T23:56:26.575Z,92.64
2022-12-04T23:58:55.799Z,92.45
